Time;durP1;ratioP1;P1;durP2;ratioP2;P2;SDS_P1;SDS_P2;PMS_P1;PMS_P2;Temp;Humidity;BMP_temperature;BMP_pressure;BME280_temperature;BME280_humidity;BME280_pressure;Samples;Min_cycle;Max_cycle;Signal;HPM_P1;HPM_P2
2023/09/29 00:03:19;;;;;;;185.50;172.00;;;;;;;14.33;99.20;100849.09;224149;1265;138606;-90
2023/09/29 00:09:20;;;;;;;188.90;175.40;;;;;;;14.29;99.76;100853.12;223530;1264;140518;-88
2023/09/29 00:15:21;;;;;;;195.60;181.80;;;;;;;14.27;99.87;100850.02;224108;1264;139044;-88
2023/09/29 00:27:16;;;;;;;120.80;112.30;;;;;;;14.16;100.00;100847.04;224207;1264;138541;-88
2023/09/29 00:33:17;;;;;;;162.60;151.00;;;;;;;14.11;100.00;100854.52;223670;1265;388165;-88
2023/09/29 00:39:18;;;;;;;80.20;74.00;;;;;;;14.05;100.00;100849.60;223292;1265;141245;-88
2023/09/29 00:45:12;;;;;;;;;;;;;;;;;;;;;
2023/09/29 00:51:21;;;;;;;158.60;147.00;;;;;;;13.98;100.00;100843.73;223362;1265;140725;-88
2023/09/29 00:57:22;;;;;;;108.10;100.60;;;;;;;13.94;100.00;100843.31;223892;1265;139325;-87
2023/09/29 01:03:23;;;;;;;68.30;63.20;;;;;;;13.90;100.00;100845.91;223911;1266;138836;-88
2023/09/29 01:09:25;;;;;;;113.20;104.90;;;;;;;13.85;100.00;100842.48;223488;1265;140199;-88
2023/09/29 01:15:26;;;;;;;126.40;117.60;;;;;;;13.82;100.00;100844.38;223909;1265;139083;-88
2023/09/29 01:21:28;;;;;;;140.30;130.20;;;;;;;13.79;100.00;100849.65;223320;1265;140733;-88
2023/09/29 01:27:28;;;;;;;109.40;101.70;;;;;;;13.76;100.00;100845.52;223853;1265;139597;-88
2023/09/29 01:33:29;;;;;;;122.00;113.30;;;;;;;13.70;100.00;100841.23;223873;1269;138782;-90
2023/09/29 01:39:31;;;;;;;86.80;80.30;;;;;;;13.67;100.00;100837.18;223371;1266;140743;-88
2023/09/29 01:45:46;;;;;;;94.40;87.90;;;;;;;13.64;100.00;100839.79;223943;1265;138552;-88
2023/09/29 01:51:29;;;;;;;88.10;81.30;;;;;;;13.60;100.00;100836.52;223358;1265;140475;-87
2023/09/29 01:57:31;;;;;;;79.10;72.90;;;;;;;13.58;100.00;100845.59;223923;1265;138665;-88
2023/09/29 02:03:32;;;;;;;126.10;116.60;;;;;;;13.56;100.00;100837.29;223775;1266;365332;-87
2023/09/29 02:15:34;;;;;;;104.70;97.10;;;;;;;13.52;100.00;100830.70;223909;1266;138501;-88
2023/09/29 02:26:32;;;;;;;;;;;;;;;;;;;;;
2023/09/29 02:32:34;;;;;;;103.00;95.40;;;;;;;13.44;100.00;100828.69;223704;1263;140597;-80
2023/09/29 02:44:33;;;;;;;112.20;104.00;;;;;;;13.38;100.00;100828.02;224226;1263;138682;-81
2023/09/29 02:50:30;;;;;;;84.00;77.60;;;;;;;13.31;100.00;100823.95;223669;1263;141125;-80
2023/09/29 03:02:23;;;;;;;;;;;;;;;;;;;;;
2023/09/29 03:08:25;;;;;;;115.60;106.80;;;;;;;13.24;100.00;100821.67;223736;1263;140604;-81
2023/09/29 03:14:26;;;;;;;94.80;87.70;;;;;;;13.21;100.00;100816.77;224194;1263;139797;-80
2023/09/29 03:20:50;;;;;;;97.10;89.40;;;;;;;13.19;100.00;100815.26;223742;1263;141020;-80
2023/09/29 03:26:31;;;;;;;127.90;118.70;;;;;;;13.18;100.00;100811.55;224219;1263;139611;-81
2023/09/29 03:32:32;;;;;;;119.60;110.50;;;;;;;13.18;100.00;100806.95;223689;1263;139651;-80
2023/09/29 03:38:33;;;;;;;137.60;127.80;;;;;;;13.16;100.00;100798.58;223714;1263;140691;-81
2023/09/29 03:44:34;;;;;;;140.00;129.50;;;;;;;13.15;100.00;100792.73;224248;1265;139451;-80
2023/09/29 03:50:35;;;;;;;147.40;136.50;;;;;;;13.14;100.00;100791.08;223608;1263;140589;-80
2023/09/29 03:56:28;;;;;;;;;;;;;;;;;;;;;
2023/09/29 04:02:22;;;;;;;;;;;;;;;;;;;;;
2023/09/29 04:08:00;;;;;;;;;;;;;;;;;;;;;
2023/09/29 04:14:00;;;;;;;139.90;129.80;;;;;;;13.08;100.00;100800.89;224184;1263;138908;-81
2023/09/29 04:20:02;;;;;;;113.60;104.70;;;;;;;13.06;100.00;100808.38;223706;1263;141263;-80
2023/09/29 04:26:03;;;;;;;135.10;125.00;;;;;;;13.05;100.00;100816.42;224201;1263;139534;-80
2023/09/29 04:32:06;;;;;;;111.70;103.00;;;;;;;13.00;100.00;100806.52;223669;1263;140878;-81
2023/09/29 04:38:06;;;;;;;83.20;76.70;;;;;;;12.99;100.00;100805.41;223781;1263;141624;-81
2023/09/29 04:44:05;;;;;;;;;;;;;;;;;;;;;
2023/09/29 04:55:52;;;;;;;96.80;89.30;;;;;;;12.84;100.00;100785.36;224259;1266;138883;-81
2023/09/29 05:01:59;;;;;;;86.10;78.60;;;;;;;12.79;100.00;100782.73;223723;1263;140433;-81
2023/09/29 05:08:00;;;;;;;102.30;94.70;;;;;;;12.76;100.00;100778.52;223662;1266;140104;-81
2023/09/29 05:20:01;;;;;;;121.70;111.80;;;;;;;12.75;100.00;100779.14;223673;1267;140982;-80
2023/09/29 05:25:57;;;;;;;135.10;125.20;;;;;;;12.76;100.00;100775.05;224247;1263;139047;-82
2023/09/29 05:31:56;;;;;;;133.80;124.20;;;;;;;12.78;100.00;100780.66;223606;1264;140664;-81
2023/09/29 05:37:57;;;;;;;154.10;142.90;;;;;;;12.82;100.00;100781.58;223717;1263;139740;-81
2023/09/29 05:43:58;;;;;;;241.50;223.10;;;;;;;12.88;100.00;100792.35;224188;1263;139101;-80
2023/09/29 05:56:02;;;;;;;262.80;242.10;;;;;;;12.98;100.00;100809.67;224149;1263;139112;-81
2023/09/29 06:02:03;;;;;;;332.20;304.20;;;;;;;13.07;100.00;100817.77;223504;1263;140066;-81
2023/09/29 06:08:02;;;;;;;436.00;395.90;;;;;;;13.23;100.00;100814.72;223540;1263;140640;-81
2023/09/29 06:14:04;;;;;;;523.00;464.80;;;;;;;13.39;100.00;100818.70;224136;1263;139461;-81
2023/09/29 06:20:05;;;;;;;501.60;454.40;;;;;;;13.55;100.00;100812.63;223589;1263;141118;-81
2023/09/29 06:26:06;;;;;;;511.70;462.50;;;;;;;13.75;100.00;100807.52;224294;1263;139614;-81
2023/09/29 06:31:50;;;;;;;539.60;487.90;;;;;;;13.94;100.00;100813.19;223566;1268;140566;-89
2023/09/29 06:43:53;;;;;;;669.30;572.30;;;;;;;14.35;100.00;100802.58;224131;1264;139625;-86
2023/09/29 06:49:54;;;;;;;682.40;581.00;;;;;;;14.53;100.00;100798.41;223388;1267;141467;-86
2023/09/29 06:55:54;;;;;;;757.90;612.70;;;;;;;14.70;100.00;100805.94;223949;1263;140217;-87
2023/09/29 07:01:44;;;;;;;687.50;587.10;;;;;;;14.87;100.00;100803.09;223464;1263;140819;-88
2023/09/29 07:07:45;;;;;;;710.30;604.70;;;;;;;15.05;100.00;100800.86;224097;1268;140207;-87
2023/09/29 07:13:44;;;;;;;835.70;684.40;;;;;;;15.26;100.00;100798.13;223928;1263;139065;-86
2023/09/29 07:19:46;;;;;;;720.90;593.80;;;;;;;15.44;100.00;100794.88;223502;1267;140922;-86
2023/09/29 07:25:47;;;;;;;775.20;630.00;;;;;;;15.64;100.00;100795.52;224186;1267;140440;-87
2023/09/29 07:31:47;;;;;;;;;;;;;;;;;;;;;
2023/09/29 07:37:50;;;;;;;673.30;598.60;;;;;;;16.03;100.00;100803.20;224106;1267;139129;-87
2023/09/29 07:43:48;;;;;;;;;;;;;;;;;;;;;
2023/09/29 07:49:43;;;;;;;;;;;;;;;;;;;;;
2023/09/29 08:01:32;;;;;;;;;;;;;;;;;;;;;
2023/09/29 08:07:27;;;;;;;744.40;648.50;;;;;;;17.52;100.00;100823.50;224057;1263;139263;-87
2023/09/29 08:13:23;;;;;;;1086.50;729.50;;;;;;;17.85;99.99;100818.58;224098;1267;140032;-88
2023/09/29 08:19:24;;;;;;;644.90;573.20;;;;;;;18.21;99.74;100813.34;223599;1266;140950;-87
2023/09/29 08:25:24;;;;;;;1923.10;926.70;;;;;;;18.63;98.53;100806.21;224080;1263;139131;-88
2023/09/29 08:31:25;;;;;;;1728.00;959.20;;;;;;;19.05;98.49;100800.33;219550;1263;5383344;-87
2023/09/29 08:37:27;;;;;;;1792.80;943.80;;;;;;;19.51;96.68;100802.84;224206;1263;139469;-87
2023/09/29 08:43:23;;;;;;;822.80;744.70;;;;;;;20.08;94.82;100801.52;224167;1263;139197;-87
2023/09/29 08:49:09;;;;;;;1255.80;896.00;;;;;;;20.78;91.95;100807.50;223748;1264;141830;-88
2023/09/29 08:55:00;;;;;;;788.10;696.80;;;;;;;21.53;90.33;100810.11;223630;1263;358910;-87
2023/09/29 09:00:38;;;;;;;127.40;116.80;;;;;;;22.36;88.05;100810.16;223339;1263;141819;-87
2023/09/29 09:06:22;;;;;;;;;;;;;;;;;;;;;
2023/09/29 09:12:13;;;;;;;;;;;;;;;;;;;;;
2023/09/29 09:18:13;;;;;;;30.00;11.30;;;;;;;24.82;76.97;100787.45;223531;1264;141105;-90
2023/09/29 09:24:17;;;;;;;21.70;9.50;;;;;;;25.36;73.20;100776.67;224087;1263;138474;-88
2023/09/29 09:30:10;;;;;;;17.60;9.00;;;;;;;26.07;71.78;100771.80;223549;1263;139369;-89
2023/09/29 09:36:12;;;;;;;14.60;9.90;;;;;;;26.81;68.70;100770.64;224178;1264;137754;-88
2023/09/29 09:42:12;;;;;;;25.60;9.40;;;;;;;27.40;65.11;100767.05;223598;1264;139080;-87
2023/09/29 09:48:16;;;;;;;30.70;9.10;;;;;;;27.66;62.56;100759.72;223645;1263;139734;-88
2023/09/29 09:53:57;;;;;;;;;;;;;;;;;;;;;
2023/09/29 10:12:10;;;;;;;17.40;8.50;;;;;;;27.86;56.95;100759.70;223579;1267;139665;-88
2023/09/29 10:18:20;;;;;;;25.30;10.20;;;;;;;28.04;55.88;100756.10;223653;1267;139438;-87
2023/09/29 10:24:24;;;;;;;12.50;9.00;;;;;;;27.99;54.48;100753.70;224136;1263;138408;-89
2023/09/29 10:30:40;;;;;;;14.50;8.90;;;;;;;27.92;55.20;100749.77;223562;1264;139678;-88
2023/09/29 10:36:35;;;;;;;16.90;9.10;;;;;;;27.91;54.85;100749.55;224118;1265;138321;-88
2023/09/29 10:42:38;;;;;;;16.80;8.60;;;;;;;27.92;54.37;100749.02;223630;1267;139460;-88
2023/09/29 10:48:41;;;;;;;15.60;8.70;;;;;;;28.03;55.06;100744.14;223482;1264;139606;-88
2023/09/29 10:54:43;;;;;;;18.60;9.20;;;;;;;28.13;54.25;100738.23;224155;1268;137891;-90
2023/09/29 11:00:49;;;;;;;14.30;8.00;;;;;;;28.15;54.33;100739.82;223703;1267;139598;-89
2023/09/29 11:06:51;;;;;;;16.50;9.50;;;;;;;28.34;53.85;100735.90;224195;1264;138344;-88
2023/09/29 11:12:48;;;;;;;16.20;8.30;;;;;;;28.37;53.59;100730.08;223668;1266;139268;-87
2023/09/29 11:18:56;;;;;;;20.20;9.20;;;;;;;28.30;52.99;100723.74;223626;1267;140297;-87
2023/09/29 11:25:00;;;;;;;16.40;8.30;;;;;;;28.17;52.50;100714.38;224210;1264;137857;-88
2023/09/29 11:30:57;;;;;;;16.60;7.70;;;;;;;28.08;52.80;100713.96;223720;1264;139454;-88
2023/09/29 11:36:58;;;;;;;;;;;;;;;;;;;;;
2023/09/29 11:42:45;;;;;;;13.80;7.20;;;;;;;27.88;51.75;100704.16;224354;1264;137661;-87
2023/09/29 11:54:46;;;;;;;17.80;7.30;;;;;;;27.85;52.39;100697.32;224246;1264;137798;-90
2023/09/29 12:00:50;;;;;;;14.30;7.70;;;;;;;27.90;51.98;100695.98;223701;1263;139476;-89
2023/09/29 12:06:53;;;;;;;11.20;6.90;;;;;;;27.89;52.15;100690.35;224226;1264;137921;-85
2023/09/29 12:12:52;;;;;;;13.30;7.30;;;;;;;27.92;52.20;100689.88;223618;1264;138214;-88
2023/09/29 12:18:53;;;;;;;16.20;8.40;;;;;;;27.85;52.43;100682.41;223684;1264;141065;-88
2023/09/29 12:24:54;;;;;;;17.00;7.00;;;;;;;27.88;52.22;100680.20;224249;1264;137894;-86
2023/09/29 12:30:55;;;;;;;15.00;6.60;;;;;;;27.86;52.23;100675.48;223602;1263;139962;-86
2023/09/29 12:36:56;;;;;;;13.00;6.50;;;;;;;27.78;51.50;100674.41;224120;1264;138380;-84
2023/09/29 12:42:59;;;;;;;15.40;6.60;;;;;;;27.59;52.26;100673.66;224205;1263;137700;-85
2023/09/29 12:48:59;;;;;;;16.70;6.40;;;;;;;27.53;52.65;100675.54;223717;1263;140485;-85
2023/09/29 12:55:00;;;;;;;13.40;7.00;;;;;;;27.45;52.51;100678.90;224194;1263;138208;-86
2023/09/29 13:06:58;;;;;;;27.00;7.20;;;;;;;27.28;53.88;100682.59;224239;1264;138160;-88
2023/09/29 13:12:48;;;;;;;;;;;;;;;;;;;;;
2023/09/29 13:18:45;;;;;;;18.00;7.80;;;;;;;27.15;53.85;100679.75;223602;1263;139735;-87
2023/09/29 13:24:44;;;;;;;19.60;6.80;;;;;;;27.07;53.93;100676.48;224286;1264;138000;-86
2023/09/29 13:30:46;;;;;;;27.10;7.20;;;;;;;27.12;54.63;100672.48;223748;1264;139517;-85
2023/09/29 13:42:33;;;;;;;21.20;8.40;;;;;;;27.03;54.76;100668.55;223569;1263;139473;-87
2023/09/29 13:48:26;;;;;;;;;;;;;;;;;;;;;
2023/09/29 13:54:29;;;;;;;14.90;7.20;;;;;;;26.84;55.45;100656.30;224307;1263;138201;-88
2023/09/29 14:00:31;;;;;;;28.10;7.30;;;;;;;26.83;55.80;100659.52;223644;1263;140343;-85
2023/09/29 14:06:24;;;;;;;23.90;8.10;;;;;;;26.79;56.61;100665.02;224148;1263;137873;-86
2023/09/29 14:12:25;;;;;;;20.00;7.20;;;;;;;26.73;56.44;100656.83;223745;1263;139894;-86
2023/09/29 14:24:27;;;;;;;26.20;9.10;;;;;;;26.52;57.02;100658.10;224300;1263;138060;-86
2023/09/29 14:30:29;;;;;;;15.70;7.20;;;;;;;26.43;57.65;100657.94;223636;1263;140163;-86
2023/09/29 14:36:29;;;;;;;21.00;7.60;;;;;;;26.37;58.67;100656.33;224238;1263;138026;-84
2023/09/29 14:42:31;;;;;;;17.60;7.40;;;;;;;26.29;58.57;100650.72;223704;1263;140113;-85
2023/09/29 14:48:34;;;;;;;14.30;7.00;;;;;;;26.21;59.86;100653.08;223652;1263;140069;-85
2023/09/29 15:00:32;;;;;;;10.70;7.40;;;;;;;26.01;61.26;100641.48;223726;1263;140120;-85
2023/09/29 15:12:35;;;;;;;14.10;7.90;;;;;;;25.69;64.46;100637.44;223628;1263;139283;-84
2023/09/29 15:18:36;;;;;;;12.90;9.00;;;;;;;25.55;65.58;100639.50;223808;1263;139659;-83
2023/09/29 15:24:28;;;;;;;23.10;19.90;;;;;;;25.41;66.63;100635.23;224142;1263;137836;-82
2023/09/29 15:30:29;;;;;;;15.00;13.00;;;;;;;25.24;67.57;100633.60;223758;1263;139723;-84
2023/09/29 15:36:36;;;;;;;21.70;18.00;;;;;;;25.07;68.36;100634.04;224313;1263;138590;-83
2023/09/29 15:42:30;;;;;;;26.80;24.30;;;;;;;24.91;69.10;100632.02;223657;1263;139678;-84
2023/09/29 15:48:25;;;;;;;39.30;35.40;;;;;;;24.81;70.12;100633.38;223752;1263;140321;-82
2023/09/29 15:54:26;;;;;;;53.80;49.30;;;;;;;24.66;70.66;100624.16;224288;1263;138528;-83
2023/09/29 16:12:29;;;;;;;100.30;92.70;;;;;;;24.29;73.21;100623.70;223437;1263;139533;-84
2023/09/29 16:18:30;;;;;;;136.60;126.20;;;;;;;24.13;73.90;100626.79;223324;1263;140330;-83
2023/09/29 16:30:23;;;;;;;;;;;;;;;;;;;;;
2023/09/29 16:36:32;;;;;;;220.90;202.30;;;;;;;23.52;76.38;100629.46;224156;1264;138478;-83
2023/09/29 16:42:23;;;;;;;256.40;233.80;;;;;;;23.38;77.22;100629.34;223741;1263;140332;-84
2023/09/29 16:48:25;;;;;;;269.20;247.20;;;;;;;23.24;78.07;100630.91;223552;1263;140295;-83
2023/09/29 16:54:26;;;;;;;326.20;297.80;;;;;;;23.06;78.41;100636.22;224113;1263;138946;-85
2023/09/29 17:00:19;;;;;;;;;;;;;;;;;;;;;
2023/09/29 17:12:22;;;;;;;401.60;363.60;;;;;;;22.62;80.24;100635.41;224374;1263;139139;-82
2023/09/29 17:18:25;;;;;;;405.90;368.20;;;;;;;22.51;81.38;100628.40;223788;1263;140587;-82
2023/09/29 17:36:27;;;;;;;526.20;465.00;;;;;;;22.09;83.74;100636.13;224356;1263;109534;-83
2023/09/29 17:42:28;;;;;;;642.10;547.70;;;;;;;22.02;84.38;100636.95;223652;1263;140371;-83
2023/09/29 17:48:26;;;;;;;;;;;;;;;;;;;;;
2023/09/29 17:54:29;;;;;;;645.30;550.40;;;;;;;21.77;85.16;100642.78;224244;1263;139416;-83
2023/09/29 18:00:30;;;;;;;681.00;574.20;;;;;;;21.71;84.88;100641.52;223636;1263;140406;-83
2023/09/29 18:06:32;;;;;;;839.40;642.90;;;;;;;21.66;85.54;100641.66;224253;1263;138907;-82
2023/09/29 18:12:33;;;;;;;737.40;621.60;;;;;;;21.57;85.96;100632.02;223712;1264;140190;-83
2023/09/29 18:24:36;;;;;;;1018.70;719.90;;;;;;;21.41;87.48;100646.98;223652;1263;141307;-84
2023/09/29 18:54:42;;;;;;;1857.50;924.70;;;;;;;20.89;93.04;100639.98;224266;1263;139537;-83
2023/09/29 19:06:43;;;;;;;1987.60;975.90;;;;;;;20.87;93.70;100632.52;224253;1263;139135;-86
2023/09/29 19:12:43;;;;;;;1999.90;987.90;;;;;;;20.83;93.76;100620.15;224172;1263;139817;-86
2023/09/29 19:19:10;;;;;;;1999.90;995.90;;;;;;;20.80;94.39;100607.85;224165;1264;139994;-85
2023/09/29 19:24:29;;;;;;;1999.90;990.50;;;;;;;20.74;94.48;100601.46;224075;1263;139119;-84
2023/09/29 19:42:34;;;;;;;1999.90;992.10;;;;;;;20.53;95.79;100586.47;224123;1263;139688;-85
2023/09/29 20:00:46;;;;;;;;;;;;;;;;;;;;;
2023/09/29 20:06:36;;;;;;;1999.90;983.10;;;;;;;20.30;97.25;100581.24;224212;1263;140255;-86
2023/09/29 20:12:37;;;;;;;1999.90;999.10;;;;;;;20.25;97.00;100578.75;224257;1264;139088;-85
2023/09/29 20:18:38;;;;;;;1999.90;992.60;;;;;;;20.20;97.45;100577.28;224091;1263;139294;-86
2023/09/29 20:24:31;;;;;;;1919.00;944.60;;;;;;;20.11;97.90;100567.91;223625;1263;140843;-82
2023/09/29 20:30:57;;;;;;;1999.90;999.30;;;;;;;20.07;98.00;100562.36;219635;1263;5379451;-81
2023/09/29 20:36:32;;;;;;;1999.90;997.00;;;;;;;20.03;98.25;100567.54;223943;1265;139378;-81
2023/09/29 20:42:26;;;;;;;1999.90;999.90;;;;;;;20.01;98.94;100571.10;223597;1265;140380;-81
2023/09/29 20:48:26;;;;;;;1999.90;987.20;;;;;;;19.97;98.97;100564.75;224217;1265;139230;-81
2023/09/29 20:54:27;;;;;;;1999.90;991.00;;;;;;;19.94;98.16;100568.27;223661;1264;140838;-81
2023/09/29 21:00:28;;;;;;;1999.90;996.80;;;;;;;19.91;98.93;100568.32;223665;1263;140453;-81
2023/09/29 21:12:33;;;;;;;1999.90;996.50;;;;;;;19.88;98.93;100564.80;223655;1266;140247;-81
2023/09/29 21:18:35;;;;;;;1999.90;981.30;;;;;;;19.83;99.74;100554.95;224231;1267;140022;-82
2023/09/29 21:24:36;;;;;;;1999.90;994.90;;;;;;;19.79;99.53;100550.35;223703;1266;140044;-81
2023/09/29 21:30:38;;;;;;;1889.60;951.90;;;;;;;19.77;99.16;100548.48;223711;1266;140377;-81
2023/09/29 21:36:59;;;;;;;1987.00;965.80;;;;;;;19.74;98.99;100550.39;224182;1263;139207;-82
2023/09/29 21:42:42;;;;;;;1943.10;957.60;;;;;;;19.72;99.07;100550.52;223619;1267;141259;-82
2023/09/29 21:48:41;;;;;;;1869.70;944.40;;;;;;;19.69;99.28;100552.67;224194;1263;139671;-81
2023/09/29 21:54:43;;;;;;;1982.70;963.80;;;;;;;19.67;99.29;100553.43;223692;1266;140137;-81
2023/09/29 22:00:46;;;;;;;1999.90;988.20;;;;;;;19.66;99.31;100545.15;223697;1263;140403;-82
2023/09/29 22:06:45;;;;;;;1999.90;979.90;;;;;;;19.65;99.64;100535.55;224230;1267;139669;-82
2023/09/29 22:12:44;;;;;;;;;;;;;;;;;;;;;
2023/09/29 22:24:47;;;;;;;1999.90;978.20;;;;;;;19.50;100.00;100526.80;223521;1263;140439;-81
2023/09/29 22:30:49;;;;;;;1929.50;961.10;;;;;;;19.48;100.00;100533.31;223573;1267;141098;-82
2023/09/29 22:36:50;;;;;;;1974.40;966.80;;;;;;;19.45;99.88;100530.09;224110;1263;139977;-81
2023/09/29 22:42:51;;;;;;;1899.80;930.50;;;;;;;19.42;99.84;100528.76;223432;1263;139960;-81
2023/09/29 22:48:52;;;;;;;1961.60;953.90;;;;;;;19.35;100.00;100525.41;224113;1267;139724;-81
2023/09/29 22:54:54;;;;;;;1555.50;877.70;;;;;;;19.28;100.00;100521.98;223662;1263;140306;-81
2023/09/29 23:00:59;;;;;;;1194.50;786.70;;;;;;;19.26;99.97;100517.94;223654;1265;140389;-82
2023/09/29 23:06:57;;;;;;;961.50;728.90;;;;;;;19.27;98.82;100510.67;224245;1263;139196;-81
2023/09/29 23:18:59;;;;;;;767.00;628.80;;;;;;;19.45;97.06;100515.36;224159;1263;139111;-82
2023/09/29 23:24:58;;;;;;;661.20;580.40;;;;;;;19.54;96.22;100515.78;223600;1263;139833;-83
2023/09/29 23:30:59;;;;;;;753.10;633.30;;;;;;;19.63;95.46;100520.89;223695;1263;140227;-82
2023/09/29 23:37:03;;;;;;;643.80;573.40;;;;;;;19.70;95.05;100521.84;224200;1263;139598;-82
2023/09/29 23:42:57;;;;;;;716.60;618.20;;;;;;;19.75;94.83;100524.92;223657;1263;140058;-81
2023/09/29 23:48:58;;;;;;;666.60;572.20;;;;;;;19.77;94.53;100525.90;224207;1267;139555;-81
